sensor_id;sensor_type;location;lat;lon;timestamp;pressure;altitude;pressure_sealevel;temperature;humidity
60642;BME280;46837;52.446;-1.930;2024-02-23T00:00:09;96925.91;;;3.20;84.14
60642;BME280;46837;52.446;-1.930;2024-02-23T00:01:09;96929.35;;;3.19;84.07
60642;BME280;46837;52.446;-1.930;2024-02-23T00:02:09;96926.32;;;3.21;84.17
60642;BME280;46837;52.446;-1.930;2024-02-23T00:03:09;96927.74;;;3.20;84.09
60642;BME280;46837;52.446;-1.930;2024-02-23T00:04:10;96933.71;;;3.22;84.22
60642;BME280;46837;52.446;-1.930;2024-02-23T00:05:09;96928.10;;;3.19;84.11
60642;BME280;46837;52.446;-1.930;2024-02-23T00:06:09;96927.31;;;3.20;84.16
60642;BME280;46837;52.446;-1.930;2024-02-23T00:07:09;96936.21;;;3.18;84.21
60642;BME280;46837;52.446;-1.930;2024-02-23T00:08:09;96930.50;;;3.15;84.15
60642;BME280;46837;52.446;-1.930;2024-02-23T00:09:09;96932.41;;;3.14;84.41
60642;BME280;46837;52.446;-1.930;2024-02-23T00:10:09;96927.20;;;3.18;84.57
60642;BME280;46837;52.446;-1.930;2024-02-23T00:11:09;96933.56;;;3.19;84.42
60642;BME280;46837;52.446;-1.930;2024-02-23T00:12:09;96937.29;;;3.21;84.46
60642;BME280;46837;52.446;-1.930;2024-02-23T00:13:09;96936.52;;;3.19;84.21
60642;BME280;46837;52.446;-1.930;2024-02-23T00:14:09;96931.40;;;3.19;84.26
60642;BME280;46837;52.446;-1.930;2024-02-23T00:15:09;96930.72;;;3.17;84.29
60642;BME280;46837;52.446;-1.930;2024-02-23T00:16:09;96931.25;;;3.18;84.38
60642;BME280;46837;52.446;-1.930;2024-02-23T00:17:09;96930.77;;;3.20;84.52
60642;BME280;46837;52.446;-1.930;2024-02-23T00:18:09;96928.27;;;3.19;84.21
60642;BME280;46837;52.446;-1.930;2024-02-23T00:19:09;96934.71;;;3.19;84.26
60642;BME280;46837;52.446;-1.930;2024-02-23T00:20:09;96931.52;;;3.20;84.35
60642;BME280;46837;52.446;-1.930;2024-02-23T00:21:09;96936.14;;;3.24;84.48
60642;BME280;46837;52.446;-1.930;2024-02-23T00:22:09;96934.98;;;3.26;84.33
60642;BME280;46837;52.446;-1.930;2024-02-23T00:23:09;96932.75;;;3.21;84.21
60642;BME280;46837;52.446;-1.930;2024-02-23T00:24:09;96933.68;;;3.20;84.39
60642;BME280;46837;52.446;-1.930;2024-02-23T00:25:09;96935.07;;;3.21;84.55
60642;BME280;46837;52.446;-1.930;2024-02-23T00:26:09;96933.86;;;3.22;84.54
60642;BME280;46837;52.446;-1.930;2024-02-23T00:27:09;96935.85;;;3.25;84.47
60642;BME280;46837;52.446;-1.930;2024-02-23T00:28:09;96932.13;;;3.28;84.47
60642;BME280;46837;52.446;-1.930;2024-02-23T00:29:09;96939.51;;;3.29;84.51
60642;BME280;46837;52.446;-1.930;2024-02-23T00:30:09;96940.75;;;3.28;84.45
60642;BME280;46837;52.446;-1.930;2024-02-23T00:31:09;96936.69;;;3.30;84.60
60642;BME280;46837;52.446;-1.930;2024-02-23T00:32:09;96945.06;;;3.29;84.50
60642;BME280;46837;52.446;-1.930;2024-02-23T00:33:09;96948.14;;;3.31;84.43
60642;BME280;46837;52.446;-1.930;2024-02-23T00:34:09;96943.66;;;3.31;84.45
60642;BME280;46837;52.446;-1.930;2024-02-23T00:35:09;96948.17;;;3.35;84.56
60642;BME280;46837;52.446;-1.930;2024-02-23T00:36:09;96953.10;;;3.34;84.51
60642;BME280;46837;52.446;-1.930;2024-02-23T00:37:09;96953.06;;;3.36;84.58
60642;BME280;46837;52.446;-1.930;2024-02-23T00:38:09;96954.15;;;3.38;84.62
60642;BME280;46837;52.446;-1.930;2024-02-23T00:39:09;96954.68;;;3.41;84.54
60642;BME280;46837;52.446;-1.930;2024-02-23T00:40:09;96955.64;;;3.39;84.44
60642;BME280;46837;52.446;-1.930;2024-02-23T00:41:09;96956.86;;;3.43;84.58
60642;BME280;46837;52.446;-1.930;2024-02-23T00:42:09;96956.43;;;3.45;84.50
60642;BME280;46837;52.446;-1.930;2024-02-23T00:43:09;96954.38;;;3.46;84.53
60642;BME280;46837;52.446;-1.930;2024-02-23T00:44:09;96950.31;;;3.47;84.68
60642;BME280;46837;52.446;-1.930;2024-02-23T00:45:09;96950.97;;;3.46;84.76
60642;BME280;46837;52.446;-1.930;2024-02-23T00:46:09;96949.94;;;3.49;84.90
60642;BME280;46837;52.446;-1.930;2024-02-23T00:47:09;96946.89;;;3.53;84.97
60642;BME280;46837;52.446;-1.930;2024-02-23T00:48:09;96942.62;;;3.53;84.82
60642;BME280;46837;52.446;-1.930;2024-02-23T00:49:09;96944.83;;;3.56;84.98
60642;BME280;46837;52.446;-1.930;2024-02-23T00:50:09;96943.49;;;3.55;85.04
60642;BME280;46837;52.446;-1.930;2024-02-23T00:51:09;96942.42;;;3.58;85.16
60642;BME280;46837;52.446;-1.930;2024-02-23T00:52:09;96940.81;;;3.59;85.15
60642;BME280;46837;52.446;-1.930;2024-02-23T00:53:09;96935.14;;;3.62;85.18
60642;BME280;46837;52.446;-1.930;2024-02-23T00:54:09;96934.80;;;3.62;85.07
60642;BME280;46837;52.446;-1.930;2024-02-23T00:55:09;96938.86;;;3.60;85.17
60642;BME280;46837;52.446;-1.930;2024-02-23T00:56:09;96934.74;;;3.61;85.40
60642;BME280;46837;52.446;-1.930;2024-02-23T00:57:09;96936.48;;;3.60;85.29
60642;BME280;46837;52.446;-1.930;2024-02-23T00:58:09;96934.76;;;3.59;85.43
60642;BME280;46837;52.446;-1.930;2024-02-23T00:59:09;96934.03;;;3.61;85.39
60642;BME280;46837;52.446;-1.930;2024-02-23T01:00:09;96932.48;;;3.63;85.44
60642;BME280;46837;52.446;-1.930;2024-02-23T01:01:09;96936.29;;;3.64;85.44
60642;BME280;46837;52.446;-1.930;2024-02-23T01:02:09;96934.73;;;3.63;85.34
60642;BME280;46837;52.446;-1.930;2024-02-23T01:03:09;96936.16;;;3.57;85.54
60642;BME280;46837;52.446;-1.930;2024-02-23T01:04:09;96936.62;;;3.55;85.91
60642;BME280;46837;52.446;-1.930;2024-02-23T01:05:09;96940.62;;;3.56;85.96
60642;BME280;46837;52.446;-1.930;2024-02-23T01:06:09;96940.12;;;3.59;86.03
60642;BME280;46837;52.446;-1.930;2024-02-23T01:07:09;96943.79;;;3.59;85.97
60642;BME280;46837;52.446;-1.930;2024-02-23T01:08:09;96938.80;;;3.63;85.97
60642;BME280;46837;52.446;-1.930;2024-02-23T01:09:09;96942.63;;;3.61;85.86
60642;BME280;46837;52.446;-1.930;2024-02-23T01:10:09;96945.26;;;3.63;85.99
60642;BME280;46837;52.446;-1.930;2024-02-23T01:11:09;96939.42;;;3.69;85.97
60642;BME280;46837;52.446;-1.930;2024-02-23T01:12:09;96941.15;;;3.72;85.84
60642;BME280;46837;52.446;-1.930;2024-02-23T01:13:09;96938.42;;;3.73;85.79
60642;BME280;46837;52.446;-1.930;2024-02-23T01:14:09;96935.96;;;3.76;85.85
60642;BME280;46837;52.446;-1.930;2024-02-23T01:15:09;96936.14;;;3.78;85.85
60642;BME280;46837;52.446;-1.930;2024-02-23T01:16:09;96937.11;;;3.78;85.88
60642;BME280;46837;52.446;-1.930;2024-02-23T01:17:09;96932.64;;;3.78;85.99
60642;BME280;46837;52.446;-1.930;2024-02-23T01:18:11;96930.87;;;3.82;86.07
60642;BME280;46837;52.446;-1.930;2024-02-23T01:19:09;96928.55;;;3.87;85.98
60642;BME280;46837;52.446;-1.930;2024-02-23T01:20:09;96929.25;;;3.91;86.00
60642;BME280;46837;52.446;-1.930;2024-02-23T01:21:09;96927.85;;;3.93;85.89
60642;BME280;46837;52.446;-1.930;2024-02-23T01:22:09;96927.85;;;3.93;86.13
60642;BME280;46837;52.446;-1.930;2024-02-23T01:23:09;96929.03;;;3.94;86.44
60642;BME280;46837;52.446;-1.930;2024-02-23T01:24:09;96923.37;;;3.98;86.44
60642;BME280;46837;52.446;-1.930;2024-02-23T01:25:09;96921.96;;;4.00;86.45
60642;BME280;46837;52.446;-1.930;2024-02-23T01:26:09;96923.61;;;4.04;86.44
60642;BME280;46837;52.446;-1.930;2024-02-23T01:27:09;96921.80;;;4.00;86.42
60642;BME280;46837;52.446;-1.930;2024-02-23T01:28:09;96923.87;;;3.98;86.78
60642;BME280;46837;52.446;-1.930;2024-02-23T01:29:09;96924.15;;;3.97;86.84
60642;BME280;46837;52.446;-1.930;2024-02-23T01:30:09;96923.28;;;4.02;87.07
60642;BME280;46837;52.446;-1.930;2024-02-23T01:31:10;96924.62;;;4.10;86.88
60642;BME280;46837;52.446;-1.930;2024-02-23T01:32:09;96920.96;;;4.11;86.69
60642;BME280;46837;52.446;-1.930;2024-02-23T01:33:09;96922.36;;;4.10;86.77
60642;BME280;46837;52.446;-1.930;2024-02-23T01:34:09;96917.66;;;4.11;86.83
60642;BME280;46837;52.446;-1.930;2024-02-23T01:35:09;96913.27;;;4.12;86.87
60642;BME280;46837;52.446;-1.930;2024-02-23T01:36:09;96913.49;;;4.17;86.98
60642;BME280;46837;52.446;-1.930;2024-02-23T01:37:09;96911.62;;;4.15;86.92
60642;BME280;46837;52.446;-1.930;2024-02-23T01:38:09;96904.96;;;4.11;87.23
60642;BME280;46837;52.446;-1.930;2024-02-23T01:39:09;96905.75;;;4.11;87.38
60642;BME280;46837;52.446;-1.930;2024-02-23T01:40:09;96904.44;;;4.06;87.57
60642;BME280;46837;52.446;-1.930;2024-02-23T01:41:09;96899.54;;;4.10;87.75
60642;BME280;46837;52.446;-1.930;2024-02-23T01:42:09;96900.09;;;4.05;87.73
60642;BME280;46837;52.446;-1.930;2024-02-23T01:43:09;96894.66;;;4.08;87.92
60642;BME280;46837;52.446;-1.930;2024-02-23T01:44:09;96892.90;;;4.03;87.76
60642;BME280;46837;52.446;-1.930;2024-02-23T01:45:09;96889.47;;;4.06;88.16
60642;BME280;46837;52.446;-1.930;2024-02-23T01:46:09;96891.34;;;4.10;87.96
60642;BME280;46837;52.446;-1.930;2024-02-23T01:47:09;96889.12;;;4.05;87.82
60642;BME280;46837;52.446;-1.930;2024-02-23T01:48:09;96886.55;;;4.06;87.95
60642;BME280;46837;52.446;-1.930;2024-02-23T01:49:09;96886.39;;;4.06;87.92
60642;BME280;46837;52.446;-1.930;2024-02-23T01:50:09;96884.30;;;4.07;87.91
60642;BME280;46837;52.446;-1.930;2024-02-23T01:51:09;96885.18;;;4.03;87.70
60642;BME280;46837;52.446;-1.930;2024-02-23T01:52:09;96882.97;;;4.04;87.77
60642;BME280;46837;52.446;-1.930;2024-02-23T01:53:09;96881.84;;;4.04;87.71
60642;BME280;46837;52.446;-1.930;2024-02-23T01:54:09;96877.35;;;4.03;87.65
60642;BME280;46837;52.446;-1.930;2024-02-23T01:55:09;96885.44;;;4.03;87.72
60642;BME280;46837;52.446;-1.930;2024-02-23T01:56:09;96883.71;;;4.05;87.79
60642;BME280;46837;52.446;-1.930;2024-02-23T01:57:09;96881.61;;;4.05;87.72
60642;BME280;46837;52.446;-1.930;2024-02-23T01:58:09;96882.64;;;4.00;87.81
60642;BME280;46837;52.446;-1.930;2024-02-23T01:59:09;96883.43;;;3.99;88.08
60642;BME280;46837;52.446;-1.930;2024-02-23T02:00:09;96883.80;;;4.04;88.14
60642;BME280;46837;52.446;-1.930;2024-02-23T02:01:09;96882.79;;;4.08;88.06
60642;BME280;46837;52.446;-1.930;2024-02-23T02:02:09;96882.06;;;4.11;87.93
60642;BME280;46837;52.446;-1.930;2024-02-23T02:03:09;96882.88;;;4.09;87.80
60642;BME280;46837;52.446;-1.930;2024-02-23T02:04:09;96886.94;;;4.08;87.85
60642;BME280;46837;52.446;-1.930;2024-02-23T02:05:10;96887.05;;;4.08;88.02
60642;BME280;46837;52.446;-1.930;2024-02-23T02:06:09;96890.66;;;4.13;88.12
60642;BME280;46837;52.446;-1.930;2024-02-23T02:07:09;96888.28;;;4.08;88.16
60642;BME280;46837;52.446;-1.930;2024-02-23T02:08:09;96887.49;;;4.14;88.34
60642;BME280;46837;52.446;-1.930;2024-02-23T02:09:09;96890.02;;;4.17;88.26
60642;BME280;46837;52.446;-1.930;2024-02-23T02:10:09;96887.84;;;4.15;88.15
60642;BME280;46837;52.446;-1.930;2024-02-23T02:11:09;96885.43;;;4.17;88.27
60642;BME280;46837;52.446;-1.930;2024-02-23T02:12:09;96885.34;;;4.16;88.37
60642;BME280;46837;52.446;-1.930;2024-02-23T02:13:09;96888.52;;;4.18;88.48
60642;BME280;46837;52.446;-1.930;2024-02-23T02:14:09;96882.97;;;4.21;88.49
60642;BME280;46837;52.446;-1.930;2024-02-23T02:15:09;96889.04;;;4.19;88.40
60642;BME280;46837;52.446;-1.930;2024-02-23T02:16:09;96882.65;;;4.21;88.42
60642;BME280;46837;52.446;-1.930;2024-02-23T02:17:09;96884.47;;;4.21;88.57
60642;BME280;46837;52.446;-1.930;2024-02-23T02:18:09;96888.64;;;4.23;88.66
60642;BME280;46837;52.446;-1.930;2024-02-23T02:19:09;96889.26;;;4.26;88.60
60642;BME280;46837;52.446;-1.930;2024-02-23T02:20:11;96888.67;;;4.24;88.61
60642;BME280;46837;52.446;-1.930;2024-02-23T02:21:09;96891.81;;;4.25;88.72
60642;BME280;46837;52.446;-1.930;2024-02-23T02:22:09;96892.70;;;4.27;88.69
60642;BME280;46837;52.446;-1.930;2024-02-23T02:23:10;96888.37;;;4.29;88.73
60642;BME280;46837;52.446;-1.930;2024-02-23T02:24:09;96885.42;;;4.32;88.69
60642;BME280;46837;52.446;-1.930;2024-02-23T02:25:09;96885.04;;;4.33;88.57
60642;BME280;46837;52.446;-1.930;2024-02-23T02:26:09;96880.23;;;4.31;88.58
60642;BME280;46837;52.446;-1.930;2024-02-23T02:27:09;96876.60;;;4.31;88.78
60642;BME280;46837;52.446;-1.930;2024-02-23T02:28:09;96874.89;;;4.30;88.60
60642;BME280;46837;52.446;-1.930;2024-02-23T02:29:09;96873.73;;;4.29;88.48
60642;BME280;46837;52.446;-1.930;2024-02-23T02:30:09;96871.64;;;4.31;88.59
60642;BME280;46837;52.446;-1.930;2024-02-23T02:31:09;96873.17;;;4.30;88.44
60642;BME280;46837;52.446;-1.930;2024-02-23T02:32:09;96873.29;;;4.29;88.32
60642;BME280;46837;52.446;-1.930;2024-02-23T02:33:09;96874.98;;;4.28;88.31
60642;BME280;46837;52.446;-1.930;2024-02-23T02:34:09;96863.94;;;4.29;88.30
60642;BME280;46837;52.446;-1.930;2024-02-23T02:35:09;96870.16;;;4.27;88.18
60642;BME280;46837;52.446;-1.930;2024-02-23T02:36:09;96868.46;;;4.25;88.27
60642;BME280;46837;52.446;-1.930;2024-02-23T02:37:09;96870.25;;;4.17;88.08
60642;BME280;46837;52.446;-1.930;2024-02-23T02:38:09;96868.16;;;4.18;88.22
60642;BME280;46837;52.446;-1.930;2024-02-23T02:39:09;96868.65;;;4.16;88.15
60642;BME280;46837;52.446;-1.930;2024-02-23T02:40:09;96860.91;;;4.10;87.96
60642;BME280;46837;52.446;-1.930;2024-02-23T02:41:09;96868.66;;;4.07;88.11
60642;BME280;46837;52.446;-1.930;2024-02-23T02:42:09;96874.34;;;4.04;88.17
60642;BME280;46837;52.446;-1.930;2024-02-23T02:43:09;96872.77;;;4.04;88.29
60642;BME280;46837;52.446;-1.930;2024-02-23T02:44:09;96866.75;;;4.00;88.08
60642;BME280;46837;52.446;-1.930;2024-02-23T02:45:09;96868.75;;;4.03;88.24
60642;BME280;46837;52.446;-1.930;2024-02-23T02:46:09;96864.71;;;4.04;88.13
60642;BME280;46837;52.446;-1.930;2024-02-23T02:47:09;96864.12;;;4.02;88.07
60642;BME280;46837;52.446;-1.930;2024-02-23T02:48:09;96866.42;;;3.99;88.19
60642;BME280;46837;52.446;-1.930;2024-02-23T02:49:09;96869.67;;;4.03;88.32
60642;BME280;46837;52.446;-1.930;2024-02-23T02:50:09;96864.39;;;4.04;88.14
60642;BME280;46837;52.446;-1.930;2024-02-23T02:51:09;96863.71;;;3.99;87.94
60642;BME280;46837;52.446;-1.930;2024-02-23T02:52:09;96860.36;;;3.94;88.03
60642;BME280;46837;52.446;-1.930;2024-02-23T02:53:09;96859.22;;;3.93;88.15
60642;BME280;46837;52.446;-1.930;2024-02-23T02:54:09;96863.91;;;3.95;88.35
60642;BME280;46837;52.446;-1.930;2024-02-23T02:55:09;96863.83;;;3.99;88.24
60642;BME280;46837;52.446;-1.930;2024-02-23T02:56:09;96857.52;;;3.96;88.01
60642;BME280;46837;52.446;-1.930;2024-02-23T02:57:09;96860.22;;;3.98;88.15
60642;BME280;46837;52.446;-1.930;2024-02-23T02:58:09;96857.96;;;3.96;88.02
60642;BME280;46837;52.446;-1.930;2024-02-23T02:59:09;96850.09;;;3.90;88.14
60642;BME280;46837;52.446;-1.930;2024-02-23T03:00:10;96855.83;;;3.86;88.11
60642;BME280;46837;52.446;-1.930;2024-02-23T03:01:09;96853.50;;;3.83;88.16
60642;BME280;46837;52.446;-1.930;2024-02-23T03:02:09;96848.99;;;3.84;88.22
60642;BME280;46837;52.446;-1.930;2024-02-23T03:03:09;96846.73;;;3.84;88.18
60642;BME280;46837;52.446;-1.930;2024-02-23T03:04:09;96846.73;;;3.75;87.97
60642;BME280;46837;52.446;-1.930;2024-02-23T03:05:09;96850.78;;;3.79;88.32
60642;BME280;46837;52.446;-1.930;2024-02-23T03:06:09;96844.10;;;3.76;88.01
60642;BME280;46837;52.446;-1.930;2024-02-23T03:07:09;96841.90;;;3.71;87.85
60642;BME280;46837;52.446;-1.930;2024-02-23T03:08:09;96846.12;;;3.59;87.99
60642;BME280;46837;52.446;-1.930;2024-02-23T03:09:09;96850.71;;;3.59;88.34
60642;BME280;46837;52.446;-1.930;2024-02-23T03:10:09;96849.67;;;3.60;88.43
60642;BME280;46837;52.446;-1.930;2024-02-23T03:11:09;96851.82;;;3.60;88.41
60642;BME280;46837;52.446;-1.930;2024-02-23T03:12:09;96850.65;;;3.57;88.25
60642;BME280;46837;52.446;-1.930;2024-02-23T03:13:09;96851.19;;;3.50;88.33
60642;BME280;46837;52.446;-1.930;2024-02-23T03:14:09;96849.31;;;3.50;88.50
60642;BME280;46837;52.446;-1.930;2024-02-23T03:15:09;96852.68;;;3.46;88.50
60642;BME280;46837;52.446;-1.930;2024-02-23T03:16:18;96864.31;;;3.50;88.81
60642;BME280;46837;52.446;-1.930;2024-02-23T03:17:09;96862.01;;;3.46;88.47
60642;BME280;46837;52.446;-1.930;2024-02-23T03:18:09;96859.98;;;3.35;88.58
60642;BME280;46837;52.446;-1.930;2024-02-23T03:19:09;96859.42;;;3.39;89.03
60642;BME280;46837;52.446;-1.930;2024-02-23T03:20:13;96866.07;;;3.44;89.09
60642;BME280;46837;52.446;-1.930;2024-02-23T03:21:09;96868.53;;;3.49;89.01
60642;BME280;46837;52.446;-1.930;2024-02-23T03:22:09;96867.68;;;3.49;88.72
60642;BME280;46837;52.446;-1.930;2024-02-23T03:23:09;96869.05;;;3.53;88.80
60642;BME280;46837;52.446;-1.930;2024-02-23T03:24:09;96864.50;;;3.56;88.67
60642;BME280;46837;52.446;-1.930;2024-02-23T03:25:13;96855.77;;;3.55;88.48
60642;BME280;46837;52.446;-1.930;2024-02-23T03:26:09;96861.61;;;3.57;88.48
60642;BME280;46837;52.446;-1.930;2024-02-23T03:27:09;96864.36;;;3.59;88.50
60642;BME280;46837;52.446;-1.930;2024-02-23T03:28:09;96865.51;;;3.64;88.45
60642;BME280;46837;52.446;-1.930;2024-02-23T03:29:09;96858.51;;;3.62;88.22
60642;BME280;46837;52.446;-1.930;2024-02-23T03:30:09;96858.69;;;3.62;88.23
60642;BME280;46837;52.446;-1.930;2024-02-23T03:31:09;96859.80;;;3.61;88.18
60642;BME280;46837;52.446;-1.930;2024-02-23T03:32:09;96860.56;;;3.63;88.31
60642;BME280;46837;52.446;-1.930;2024-02-23T03:33:09;96855.54;;;3.63;88.19
60642;BME280;46837;52.446;-1.930;2024-02-23T03:34:09;96850.20;;;3.60;88.17
60642;BME280;46837;52.446;-1.930;2024-02-23T03:35:09;96849.46;;;3.59;88.28
60642;BME280;46837;52.446;-1.930;2024-02-23T03:36:09;96849.83;;;3.60;88.33
60642;BME280;46837;52.446;-1.930;2024-02-23T03:37:09;96846.95;;;3.63;88.37
60642;BME280;46837;52.446;-1.930;2024-02-23T03:38:09;96843.50;;;3.63;88.19
60642;BME280;46837;52.446;-1.930;2024-02-23T03:39:09;96848.62;;;3.63;88.06
60642;BME280;46837;52.446;-1.930;2024-02-23T03:40:09;96846.50;;;3.64;88.05
60642;BME280;46837;52.446;-1.930;2024-02-23T03:41:09;96844.46;;;3.64;87.97
60642;BME280;46837;52.446;-1.930;2024-02-23T03:42:09;96845.16;;;3.63;87.88
60642;BME280;46837;52.446;-1.930;2024-02-23T03:43:09;96851.04;;;3.64;87.83
60642;BME280;46837;52.446;-1.930;2024-02-23T03:44:09;96850.50;;;3.64;87.78
60642;BME280;46837;52.446;-1.930;2024-02-23T03:45:09;96847.46;;;3.59;87.62
60642;BME280;46837;52.446;-1.930;2024-02-23T03:46:09;96843.34;;;3.55;87.70
60642;BME280;46837;52.446;-1.930;2024-02-23T03:47:09;96841.17;;;3.54;87.84
60642;BME280;46837;52.446;-1.930;2024-02-23T03:48:09;96840.98;;;3.52;87.79
60642;BME280;46837;52.446;-1.930;2024-02-23T03:49:09;96840.11;;;3.53;87.93
60642;BME280;46837;52.446;-1.930;2024-02-23T03:50:09;96840.07;;;3.50;87.77
60642;BME280;46837;52.446;-1.930;2024-02-23T03:51:09;96837.48;;;3.43;87.65
60642;BME280;46837;52.446;-1.930;2024-02-23T03:52:09;96840.23;;;3.35;87.95
60642;BME280;46837;52.446;-1.930;2024-02-23T03:53:09;96842.69;;;3.37;88.31
60642;BME280;46837;52.446;-1.930;2024-02-23T03:54:09;96841.31;;;3.35;88.32
60642;BME280;46837;52.446;-1.930;2024-02-23T03:55:09;96841.92;;;3.30;88.28
60642;BME280;46837;52.446;-1.930;2024-02-23T03:56:09;96843.89;;;3.28;88.52
60642;BME280;46837;52.446;-1.930;2024-02-23T03:57:09;96847.50;;;3.29;88.55
60642;BME280;46837;52.446;-1.930;2024-02-23T03:58:09;96848.23;;;3.22;88.46
60642;BME280;46837;52.446;-1.930;2024-02-23T03:59:09;96850.14;;;3.21;88.65
60642;BME280;46837;52.446;-1.930;2024-02-23T04:00:09;96851.40;;;3.18;88.69
60642;BME280;46837;52.446;-1.930;2024-02-23T04:01:09;96855.05;;;3.19;88.89
60642;BME280;46837;52.446;-1.930;2024-02-23T04:02:09;96853.23;;;3.18;88.83
60642;BME280;46837;52.446;-1.930;2024-02-23T04:03:09;96855.23;;;3.16;88.83
60642;BME280;46837;52.446;-1.930;2024-02-23T04:04:09;96855.24;;;3.17;88.93
60642;BME280;46837;52.446;-1.930;2024-02-23T04:05:09;96855.92;;;3.18;88.88
60642;BME280;46837;52.446;-1.930;2024-02-23T04:06:09;96853.57;;;3.17;88.74
60642;BME280;46837;52.446;-1.930;2024-02-23T04:07:09;96846.02;;;3.17;88.71
60642;BME280;46837;52.446;-1.930;2024-02-23T04:08:09;96847.46;;;3.16;88.65
60642;BME280;46837;52.446;-1.930;2024-02-23T04:09:09;96844.81;;;3.18;88.83
60642;BME280;46837;52.446;-1.930;2024-02-23T04:10:09;96843.55;;;3.11;88.44
60642;BME280;46837;52.446;-1.930;2024-02-23T04:11:09;96837.88;;;3.12;88.76
60642;BME280;46837;52.446;-1.930;2024-02-23T04:12:10;96838.08;;;3.10;88.77
60642;BME280;46837;52.446;-1.930;2024-02-23T04:13:09;96841.84;;;3.10;88.91
60642;BME280;46837;52.446;-1.930;2024-02-23T04:14:09;96838.56;;;3.10;88.84
60642;BME280;46837;52.446;-1.930;2024-02-23T04:15:09;96835.04;;;3.09;88.79
60642;BME280;46837;52.446;-1.930;2024-02-23T04:16:09;96838.68;;;3.05;88.88
60642;BME280;46837;52.446;-1.930;2024-02-23T04:17:09;96836.90;;;3.07;89.04
60642;BME280;46837;52.446;-1.930;2024-02-23T04:18:09;96834.30;;;2.99;88.79
60642;BME280;46837;52.446;-1.930;2024-02-23T04:19:09;96832.95;;;3.00;88.98
60642;BME280;46837;52.446;-1.930;2024-02-23T04:20:09;96841.27;;;2.94;88.98
60642;BME280;46837;52.446;-1.930;2024-02-23T04:21:09;96839.46;;;2.90;89.11
60642;BME280;46837;52.446;-1.930;2024-02-23T04:22:09;96839.06;;;2.94;89.41
60642;BME280;46837;52.446;-1.930;2024-02-23T04:23:09;96846.60;;;2.97;89.35
60642;BME280;46837;52.446;-1.930;2024-02-23T04:24:09;96846.23;;;2.97;89.14
60642;BME280;46837;52.446;-1.930;2024-02-23T04:25:09;96844.82;;;2.96;89.12
60642;BME280;46837;52.446;-1.930;2024-02-23T04:26:09;96846.76;;;2.97;89.03
60642;BME280;46837;52.446;-1.930;2024-02-23T04:27:09;96847.48;;;2.96;88.97
60642;BME280;46837;52.446;-1.930;2024-02-23T04:28:09;96855.27;;;2.98;89.02
60642;BME280;46837;52.446;-1.930;2024-02-23T04:29:09;96856.68;;;2.95;88.86
60642;BME280;46837;52.446;-1.930;2024-02-23T04:30:09;96854.67;;;2.92;88.88
60642;BME280;46837;52.446;-1.930;2024-02-23T04:31:10;96850.67;;;2.93;89.03
60642;BME280;46837;52.446;-1.930;2024-02-23T04:32:09;96852.28;;;2.96;89.09
60642;BME280;46837;52.446;-1.930;2024-02-23T04:33:09;96857.34;;;2.96;88.91
60642;BME280;46837;52.446;-1.930;2024-02-23T04:34:09;96854.16;;;2.96;88.79
60642;BME280;46837;52.446;-1.930;2024-02-23T04:35:09;96856.62;;;2.98;88.90
60642;BME280;46837;52.446;-1.930;2024-02-23T04:36:09;96853.42;;;3.02;88.92
60642;BME280;46837;52.446;-1.930;2024-02-23T04:37:09;96855.08;;;3.04;88.84
60642;BME280;46837;52.446;-1.930;2024-02-23T04:38:09;96860.19;;;3.08;88.79
60642;BME280;46837;52.446;-1.930;2024-02-23T04:39:09;96861.10;;;3.10;88.65
60642;BME280;46837;52.446;-1.930;2024-02-23T04:40:09;96857.59;;;3.11;88.46
60642;BME280;46837;52.446;-1.930;2024-02-23T04:41:09;96847.88;;;3.11;88.29
60642;BME280;46837;52.446;-1.930;2024-02-23T04:42:09;96859.44;;;3.10;88.21
60642;BME280;46837;52.446;-1.930;2024-02-23T04:43:09;96857.22;;;3.08;88.25
60642;BME280;46837;52.446;-1.930;2024-02-23T04:44:09;96854.62;;;3.09;88.36
60642;BME280;46837;52.446;-1.930;2024-02-23T04:45:09;96855.80;;;3.11;88.40
60642;BME280;46837;52.446;-1.930;2024-02-23T04:46:09;96857.90;;;3.14;88.27
60642;BME280;46837;52.446;-1.930;2024-02-23T04:47:09;96860.32;;;3.12;88.07
60642;BME280;46837;52.446;-1.930;2024-02-23T04:48:09;96858.93;;;3.05;87.93
60642;BME280;46837;52.446;-1.930;2024-02-23T04:49:09;96861.52;;;3.05;88.14
60642;BME280;46837;52.446;-1.930;2024-02-23T04:50:09;96859.76;;;3.05;88.19
60642;BME280;46837;52.446;-1.930;2024-02-23T04:51:09;96859.63;;;3.03;88.23
60642;BME280;46837;52.446;-1.930;2024-02-23T04:52:09;96861.84;;;3.01;88.28
60642;BME280;46837;52.446;-1.930;2024-02-23T04:53:09;96860.09;;;2.96;88.26
60642;BME280;46837;52.446;-1.930;2024-02-23T04:54:09;96868.12;;;2.96;88.49
60642;BME280;46837;52.446;-1.930;2024-02-23T04:55:09;96868.81;;;2.98;88.50
60642;BME280;46837;52.446;-1.930;2024-02-23T04:56:09;96870.72;;;2.96;88.44
60642;BME280;46837;52.446;-1.930;2024-02-23T04:57:09;96876.67;;;2.95;88.40
60642;BME280;46837;52.446;-1.930;2024-02-23T04:58:09;96881.61;;;2.94;88.44
60642;BME280;46837;52.446;-1.930;2024-02-23T04:59:09;96885.03;;;2.92;88.45
60642;BME280;46837;52.446;-1.930;2024-02-23T05:00:10;96883.36;;;2.90;88.43
60642;BME280;46837;52.446;-1.930;2024-02-23T05:01:09;96885.89;;;2.90;88.71
60642;BME280;46837;52.446;-1.930;2024-02-23T05:02:09;96889.75;;;2.83;88.56
60642;BME280;46837;52.446;-1.930;2024-02-23T05:03:09;96896.43;;;2.84;88.91
60642;BME280;46837;52.446;-1.930;2024-02-23T05:04:09;96897.28;;;2.84;88.92
60642;BME280;46837;52.446;-1.930;2024-02-23T05:05:09;96899.84;;;2.85;88.86
60642;BME280;46837;52.446;-1.930;2024-02-23T05:06:09;96901.01;;;2.83;88.86
60642;BME280;46837;52.446;-1.930;2024-02-23T05:07:09;96904.50;;;2.78;88.90
60642;BME280;46837;52.446;-1.930;2024-02-23T05:08:09;96901.15;;;2.81;89.21
60642;BME280;46837;52.446;-1.930;2024-02-23T05:09:12;96905.19;;;2.79;89.05
60642;BME280;46837;52.446;-1.930;2024-02-23T05:10:09;96903.30;;;2.77;89.05
60642;BME280;46837;52.446;-1.930;2024-02-23T05:11:09;96902.36;;;2.77;89.20
60642;BME280;46837;52.446;-1.930;2024-02-23T05:12:11;96898.68;;;2.78;89.16
60642;BME280;46837;52.446;-1.930;2024-02-23T05:13:09;96897.33;;;2.78;89.10
60642;BME280;46837;52.446;-1.930;2024-02-23T05:14:09;96900.10;;;2.69;89.12
60642;BME280;46837;52.446;-1.930;2024-02-23T05:15:09;96898.00;;;2.66;89.48
60642;BME280;46837;52.446;-1.930;2024-02-23T05:16:09;96898.15;;;2.67;89.60
60642;BME280;46837;52.446;-1.930;2024-02-23T05:17:09;96894.35;;;2.67;89.70